Relevés horaires Schaffen (Belgique)


Relevés horaires à Schaffen - Samedi 19 Janv. 2019
Heure UTC1 Température [°C] Vent [km/h] Hum. [%] Pres.4 [hPa] Visi. [Km] Nébu. [octa] Préc.5 [mm] Cond.
2m. Res. Ros. Dir.2 Vit. Moy. Raf.3
17:00 1.1 1.1 -4.5 E 3.7 -- 7.4 66 1013.2(-0.8/3h) 20 -- -- --
16:00 2.0 2.0 -3.9 ESE 3.7 -- 7.4 65 1013.2(-1.6/3h) 20 -- -- --
15:00 3.0 1.6 -3.3 ESE 5.6 -- 11.1 63 1013.5(-2.0/3h) 20 -- -- --
14:00 2.9 1.5 -2.9 E 5.6 -- 11.1 66 1014.1(-2.1/3h) 20 -- -- --
13:00 2.5 1 -2.9 SE 5.6 -- 11.1 67 1014.8(-1.8/3h) 20 -- -- --
12:00 1.9 0.3 -2.6 SE 5.6 -- 11.1 72 1015.6(-1.1/3h) 19 -- -- --
11:00 1.2 -0.5 -2.5 SE 5.6 -- 9.3 76 1016.2(-0.4/3h) 19 -- -- --
10:00 0.0 -1.9 -2.6 SE 5.6 -- 7.4 83 1016.7(0.1/3h) 19 -- -- --
10:00 0.0 -1.9 -2.6 SE 5.6 -- 7.4 83 1016.7(0.1/3h) 19 -- -- --
09:00 -1.6 -3.7 -3.2 SE 5.6 -- 7.4 89 1016.7(-0.1/3h) 16 -- -- --
09:00 -1.6 -3.7 -3.2 SE 5.6 -- 7.4 89 1016.7(-0.1/3h) 16 -- -- --
08:00 -2.6 -2.6 -4.1 SE 3.7 -- 7.4 89 1016.8(-0.5/3h) 14 -- -- --
08:00 -2.6 -2.6 -4.1 SE 3.7 -- 7.4 89 1016.8(-0.5/3h) 14 -- -- --
07:00 -2.5 -2.5 -3.9 SE 3.7 -- 5.6 90 1016.7(-1.0/3h) 14 -- -- --
06:00 -2.6 -2.6 -3.7 SE 3.7 -- 5.6 92 1017(-1.2/3h) 14 -- -- --
05:00 -2.3 -2.3 -3.4 SE 3.7 -- 5.6 92 1017.3(-1.2/3h) 14 -- -- --
04:00 -2.0 -2.0 -3.0 SE 3.7 -- 5.6 93 1017.7(-1.2/3h) 13 -- -- --
03:00 -1.8 -1.8 -2.6 SE 3.7 -- 5.6 94 1018.2(-1.1/3h) 11 -- -- --
03:00 -1.8 -1.8 -2.6 SE 3.7 -- 5.6 94 1018.2(-1.1/3h) 11 -- -- --
02:00 -1.6 -1.6 -2.3 ESE 3.7 -- 5.6 95 1018.6(-0.9/3h) 10 -- -- --
01:00 -1.5 -1.5 -2.1 NNO 1.9 -- 3.7 96 1019(-0.5/3h) 8 -- -- --
01:00 -1.5 -1.5 -2.1 NNO 1.9 -- 3.7 96 1019(-0.5/3h) 8 -- -- --
00:00 -1.0 -1.0 -0.9 NNO 1.9 -- 3.7 101 1019.2(-0.3/3h) 7 -- -- NA

1 Coordinated Universal Time. Actuellement il est 19:00 locale et 18:00 UTC.

2 Le vent souffle depuis la direction indiquée vers la direction oposée.

3 Les rafales max. sont disponible 40 min après l'heure du relevé.

4 Pour les stations d'altitude (plus de 600m) le géopotentiel du niveau le plus proche de la pression obligatoire est indiqué.

5 Les stations disposant d'un diffuseur peuvent indiquer "trace". Cela signifie que des précipitations ont touchés le sol mais que la quantité est inférieure à 0.1 mm.

Récapitulatif de la journée
Température [°C] Vent [km/h] Ensoleillement4 [h] Precipitations totale5 [mm] Pression [Hpa]
Min1 Max.2 Moy.3 Max. Min Max.
-2.7 -- 0 11.1 0 h 0 min 0 1013.2 1019.2

1 Température minimale relevée entre 18:00 UTC la veille et 18:00 UTC le jour donné.

2 Température maximale relevée entre 06:00 UTC le jour donné et 06:00 UTC le lendemain.

3 Vent moyen de la journée basé sur les relevés horaires.

4 Ensoleillement en heures relevé entre 06:00 UTC la veille et 06:00 UTC le jour donné.

5 Précipitations totales tombées entre 06:00 UTC la jour donné et 06:00 UTC le lendemain.

Graphiques horaires